DNAA/ABV METAR and TAF weather

Enter ICAO airport designator
Station Type Date Time Source
DNAA METAR 2021/07/31 00:00 UTC NOAA

DNAA 310000Z 15003KT 9999 FEW008 23/22 Q1015 NOSIG


Station Type Date Time Source
DNAA Decoded METAR 2021/07/31 00:00 UTC NOAA

Station name not available
Jul 30, 2021 - 08:00 PM EDT / 2021.07.31 0000 UTC
Wind: from the SSE (150 degrees) at 3 MPH (3 KT):0
Visibility: greater than 7 mile(s):0
Sky conditions: mostly clear
Temperature: 73 F (23 C)
Dew Point: 71 F (22 C)
Relative Humidity: 94%
Pressure (altimeter): 29.97 in. Hg (1015 hPa)
ob: DNAA 310000Z 15003KT 9999 FEW008 23/22 Q1015 NOSIG
cycle: 0

Station Type Date Time Source
DNAA TAF 2021/07/30 18:21 UTC NOAA

TAF DNAA 301700Z 3018/3124 26007KT 9999 SCT012
BECMG 3021/3023 17010KT
TEMPO 3105/3109 5000 -RA BKN008
BECMG 3108/3110 23006KT BKN011
TEMPO 3115/3120 5000 -RA BKN010
BECMG 3120/3122 14010KT SCT009

Example: see airport list